Time;durP1;ratioP1;P1;durP2;ratioP2;P2;SDS_P1;SDS_P2;PMS_P1;PMS_P2;Temp;Humidity;BMP_temperature;BMP_pressure;BME280_temperature;BME280_humidity;BME280_pressure;Samples;Min_cycle;Max_cycle;Signal;HPM_P1;HPM_P2
2021/10/12 00:01:27;;;;;;;11.07;9.63;;;11.50;99.90;;;;;;5023309;28;20452;-65
2021/10/12 00:03:54;;;;;;;10.17;9.30;;;11.50;99.90;;;;;;5033956;28;20444;-66
2021/10/12 00:06:21;;;;;;;9.43;8.63;;;11.50;99.90;;;;;;5032738;28;20456;-65
2021/10/12 00:08:48;;;;;;;10.67;9.57;;;11.50;99.90;;;;;;5024149;28;20441;-66
2021/10/12 00:11:16;;;;;;;10.73;9.13;;;11.50;99.90;;;;;;5028466;28;20484;-65
2021/10/12 00:13:42;;;;;;;11.10;8.83;;;11.50;99.90;;;;;;5034153;28;20457;-66
2021/10/12 00:16:09;;;;;;;9.70;8.60;;;11.50;99.90;;;;;;5034927;28;20506;-65
2021/10/12 00:18:36;;;;;;;9.30;8.60;;;11.50;99.90;;;;;;5035394;28;20441;-65
2021/10/12 00:21:03;;;;;;;10.63;8.63;;;11.50;99.90;;;;;;5024499;28;20476;-66
2021/10/12 00:23:29;;;;;;;8.80;8.30;;;11.50;99.90;;;;;;5015921;28;20450;-66
2021/10/12 00:25:56;;;;;;;12.87;8.87;;;11.50;99.90;;;;;;5015968;28;20816;-65
2021/10/12 00:28:25;;;;;;;9.83;8.73;;;11.50;99.90;;;;;;5016097;28;20449;-66
2021/10/12 00:30:52;;;;;;;10.20;7.90;;;11.50;99.90;;;;;;5027679;28;20539;-65
2021/10/12 00:33:19;;;;;;;9.40;8.67;;;11.50;99.90;;;;;;5037394;28;20441;-65
2021/10/12 00:35:46;;;;;;;8.30;7.70;;;11.60;99.90;;;;;;5036771;28;20855;-65
2021/10/12 00:38:13;;;;;;;8.20;7.60;;;11.60;99.90;;;;;;5036771;28;20437;-66
2021/10/12 00:40:40;;;;;;;8.80;8.17;;;11.60;99.90;;;;;;5027996;28;20833;-65
2021/10/12 00:43:07;;;;;;;8.67;7.70;;;11.60;99.90;;;;;;5016500;28;20445;-66
2021/10/12 00:45:35;;;;;;;8.57;7.67;;;11.60;99.90;;;;;;5016796;28;20445;-65
2021/10/12 00:48:05;;;;;;;14.63;9.03;;;11.60;99.90;;;;;;5017305;28;20532;-66
2021/10/12 00:50:33;;;;;;;9.70;8.90;;;11.60;99.90;;;;;;5024022;28;21016;-65
2021/10/12 00:53:00;;;;;;;7.70;7.30;;;11.60;99.90;;;;;;5036197;28;20457;-65
2021/10/12 00:55:27;;;;;;;10.50;7.90;;;11.60;99.90;;;;;;5034929;28;20453;-66
2021/10/12 00:57:54;;;;;;;9.17;8.27;;;11.60;99.90;;;;;;5035030;28;20453;-65
2021/10/12 01:00:21;;;;;;;7.47;6.97;;;11.60;99.90;;;;;;5028459;28;20461;-66
2021/10/12 01:02:50;;;;;;;11.53;7.60;;;11.60;99.90;;;;;;5018433;28;20461;-65
2021/10/12 01:05:17;;;;;;;7.33;6.60;;;11.50;99.90;;;;;;5014770;28;20453;-65
2021/10/12 01:07:44;;;;;;;8.70;6.10;;;11.50;99.90;;;;;;5015018;28;20449;-65
2021/10/12 01:10:11;;;;;;;9.70;6.53;;;11.40;99.90;;;;;;5030276;28;20485;-65
2021/10/12 01:12:39;;;;;;;7.93;6.13;;;11.40;99.90;;;;;;5014976;28;20484;-65
2021/10/12 01:15:07;;;;;;;5.37;4.97;;;11.40;99.90;;;;;;5023689;28;20468;-65
2021/10/12 01:17:34;;;;;;;7.77;4.97;;;11.50;99.90;;;;;;5036088;28;20452;-66
2021/10/12 01:20:03;;;;;;;5.57;5.03;;;11.50;99.90;;;;;;5034749;28;20470;-65
2021/10/12 01:22:31;;;;;;;8.47;5.03;;;11.50;99.90;;;;;;5018206;28;20460;-65
2021/10/12 01:24:58;;;;;;;5.30;4.80;;;11.50;99.90;;;;;;5027489;28;20449;-65
2021/10/12 01:27:25;;;;;;;8.43;5.40;;;11.50;99.90;;;;;;5040700;28;20448;-65
2021/10/12 01:29:52;;;;;;;8.07;7.37;;;11.40;99.90;;;;;;5038476;28;20484;-65
2021/10/12 01:32:19;;;;;;;7.30;5.70;;;11.40;99.90;;;;;;5019952;28;20446;-65
2021/10/12 01:34:45;;;;;;;11.13;6.03;;;11.40;99.90;;;;;;5018957;28;20453;-66
2021/10/12 01:37:12;;;;;;;6.30;5.80;;;11.40;99.90;;;;;;5019061;28;20457;-66
2021/10/12 01:39:40;;;;;;;5.90;5.27;;;11.40;99.90;;;;;;5018440;28;20470;-65
2021/10/12 01:42:07;;;;;;;10.80;6.60;;;11.40;99.90;;;;;;5018599;28;20454;-65
2021/10/12 01:44:33;;;;;;;6.50;5.90;;;11.40;99.90;;;;;;5023991;28;20950;-65
2021/10/12 01:47:00;;;;;;;6.40;5.50;;;11.40;99.90;;;;;;5035505;28;20442;-66
2021/10/12 01:49:27;;;;;;;10.23;6.07;;;11.40;99.90;;;;;;5019336;28;20820;-66
2021/10/12 01:51:53;;;;;;;7.40;6.60;;;11.40;99.90;;;;;;5035754;28;20488;-65
2021/10/12 01:54:22;;;;;;;8.53;6.67;;;11.40;99.90;;;;;;5037697;28;20456;-66
2021/10/12 01:56:52;;;;;;;11.63;6.53;;;11.40;99.90;;;;;;5037642;28;20445;-66
2021/10/12 01:59:18;;;;;;;7.50;6.70;;;11.40;99.90;;;;;;5037295;28;20445;-65
2021/10/12 02:01:46;;;;;;;9.57;6.43;;;11.40;99.90;;;;;;5032481;28;20449;-66
2021/10/12 02:04:13;;;;;;;6.53;5.90;;;11.40;99.90;;;;;;5036073;28;20453;-65
2021/10/12 02:06:40;;;;;;;11.87;7.07;;;11.40;99.90;;;;;;5036001;28;20869;-64
2021/10/12 02:09:07;;;;;;;9.57;5.53;;;11.40;99.90;;;;;;5024592;28;20950;-65
2021/10/12 02:11:34;;;;;;;9.07;5.30;;;11.40;99.90;;;;;;5018677;28;20485;-65
2021/10/12 02:14:02;;;;;;;8.10;5.67;;;11.30;99.90;;;;;;5019460;28;20793;-66
2021/10/12 02:16:29;;;;;;;6.90;4.77;;;11.30;99.90;;;;;;5020423;28;20825;-65
2021/10/12 02:18:55;;;;;;;8.80;5.07;;;11.30;99.90;;;;;;5034787;28;20486;-66
2021/10/12 02:21:22;;;;;;;5.63;5.13;;;11.30;99.90;;;;;;5018744;28;20465;-65
2021/10/12 02:23:49;;;;;;;8.90;6.67;;;11.30;99.90;;;;;;5018312;28;20441;-66
2021/10/12 02:26:16;;;;;;;7.10;5.27;;;11.30;99.90;;;;;;5018209;28;20508;-65
2021/10/12 02:28:42;;;;;;;10.30;6.97;;;11.20;99.90;;;;;;5018716;28;20818;-65
2021/10/12 02:31:10;;;;;;;10.43;5.97;;;11.20;99.90;;;;;;5017926;28;20492;-66
2021/10/12 02:33:37;;;;;;;9.70;5.57;;;11.20;99.90;;;;;;5018023;28;20442;-65
2021/10/12 02:36:04;;;;;;;13.17;6.20;;;11.20;99.90;;;;;;5017714;28;20446;-65
2021/10/12 02:38:31;;;;;;;9.67;6.73;;;11.20;99.90;;;;;;5019005;28;20461;-65
2021/10/12 02:40:58;;;;;;;12.77;7.83;;;11.20;99.90;;;;;;5017706;28;20875;-64
2021/10/12 02:43:25;;;;;;;11.40;6.13;;;11.10;99.90;;;;;;5017563;28;20446;-65
2021/10/12 02:45:51;;;;;;;8.40;6.00;;;11.10;99.90;;;;;;5016464;28;20449;-65
2021/10/12 02:48:19;;;;;;;9.43;6.30;;;11.10;99.90;;;;;;5016573;28;20450;-65
2021/10/12 02:50:47;;;;;;;15.07;6.23;;;11.10;99.90;;;;;;5018035;28;20485;-66
2021/10/12 02:53:14;;;;;;;8.80;6.87;;;11.10;99.90;;;;;;5016493;28;20454;-64
2021/10/12 02:55:41;;;;;;;12.93;7.17;;;11.10;99.90;;;;;;5016282;28;20513;-65
2021/10/12 02:58:08;;;;;;;9.37;7.47;;;11.10;99.90;;;;;;5015925;28;20450;-65
2021/10/12 03:00:36;;;;;;;17.33;7.33;;;11.20;99.90;;;;;;5031146;28;20457;-64
2021/10/12 03:03:03;;;;;;;8.90;5.60;;;11.20;99.90;;;;;;5035335;28;20814;-66
2021/10/12 03:05:31;;;;;;;7.43;6.33;;;11.20;99.90;;;;;;5034964;28;20449;-65
2021/10/12 03:07:57;;;;;;;11.67;7.10;;;11.20;99.90;;;;;;5035782;28;20793;-65
2021/10/12 03:10:24;;;;;;;10.57;7.40;;;11.10;99.90;;;;;;5020670;28;20485;-66
2021/10/12 03:12:51;;;;;;;7.83;6.97;;;11.10;99.90;;;;;;5015337;28;20446;-65
2021/10/12 03:15:18;;;;;;;11.23;7.40;;;11.10;99.90;;;;;;5026716;28;20449;-65
2021/10/12 03:17:45;;;;;;;8.23;6.73;;;11.10;99.90;;;;;;5033305;28;20453;-65
2021/10/12 03:20:11;;;;;;;12.70;7.70;;;11.00;99.90;;;;;;5023365;28;20474;-65
2021/10/12 03:22:40;;;;;;;8.90;6.47;;;11.00;99.90;;;;;;5015929;28;20864;-65
2021/10/12 03:25:07;;;;;;;16.17;8.67;;;10.90;99.90;;;;;;5014937;28;20441;-65
2021/10/12 03:27:34;;;;;;;10.23;7.17;;;10.90;99.90;;;;;;5014708;28;20453;-65
2021/10/12 03:30:01;;;;;;;9.70;7.63;;;11.00;99.90;;;;;;5015207;28;21014;-65
2021/10/12 03:32:27;;;;;;;12.80;10.40;;;10.90;99.90;;;;;;5014190;28;20567;-65
2021/10/12 03:34:55;;;;;;;14.60;10.37;;;10.80;99.90;;;;;;5016340;28;20450;-65
2021/10/12 03:37:22;;;;;;;9.83;8.80;;;10.80;99.90;;;;;;5031075;28;21110;-66
2021/10/12 03:39:50;;;;;;;20.00;12.20;;;10.90;99.90;;;;;;5023543;28;20476;-65
2021/10/12 03:42:16;;;;;;;15.70;12.30;;;10.80;99.90;;;;;;5017973;28;20445;-66
2021/10/12 03:44:43;;;;;;;12.30;9.93;;;10.90;99.90;;;;;;5017088;28;20473;-65
2021/10/12 03:47:11;;;;;;;13.27;9.70;;;11.00;99.90;;;;;;5016418;28;20457;-65
2021/10/12 03:49:37;;;;;;;15.73;11.73;;;10.90;99.90;;;;;;5022883;28;20468;-65
2021/10/12 03:52:04;;;;;;;15.70;11.00;;;10.90;99.90;;;;;;5035418;28;20477;-66
2021/10/12 03:54:31;;;;;;;11.30;10.10;;;10.90;99.90;;;;;;5036122;28;20449;-65
2021/10/12 03:56:59;;;;;;;15.83;10.17;;;10.90;99.90;;;;;;5036452;28;20946;-65
2021/10/12 03:59:26;;;;;;;17.80;11.50;;;10.90;99.90;;;;;;5032249;28;20465;-65
2021/10/12 04:01:54;;;;;;;16.97;13.20;;;10.90;99.90;;;;;;5029937;28;20520;-65
2021/10/12 04:04:20;;;;;;;19.00;12.30;;;10.90;99.90;;;;;;5036002;28;20951;-65
2021/10/12 04:06:47;;;;;;;17.50;11.63;;;10.80;99.90;;;;;;5035909;28;20452;-65
2021/10/12 04:09:14;;;;;;;18.80;12.77;;;10.80;99.90;;;;;;5025213;28;20458;-64
2021/10/12 04:11:40;;;;;;;12.63;11.33;;;10.80;99.90;;;;;;5015974;28;21014;-65
2021/10/12 04:14:08;;;;;;;25.90;11.93;;;10.80;99.90;;;;;;5031203;28;20472;-64
2021/10/12 04:16:35;;;;;;;14.23;11.30;;;10.70;99.90;;;;;;5031628;28;20927;-64
2021/10/12 04:19:02;;;;;;;17.73;12.10;;;10.70;99.90;;;;;;5031378;28;20941;-64
2021/10/12 04:21:29;;;;;;;17.80;13.23;;;10.60;99.90;;;;;;5018349;28;20446;-64
2021/10/12 04:23:55;;;;;;;15.57;11.80;;;10.60;99.90;;;;;;5011838;28;20445;-65
2021/10/12 04:26:24;;;;;;;12.70;11.40;;;10.60;99.90;;;;;;5011843;28;20446;-63
2021/10/12 04:28:51;;;;;;;19.27;10.47;;;10.60;99.90;;;;;;5016603;28;21225;-64
2021/10/12 04:31:19;;;;;;;16.23;11.13;;;10.60;99.90;;;;;;5031210;28;20484;-63
2021/10/12 04:33:46;;;;;;;14.70;12.23;;;10.50;99.90;;;;;;5031699;28;20448;-65
2021/10/12 04:36:12;;;;;;;15.33;12.57;;;10.50;99.90;;;;;;5031588;28;20453;-64
2021/10/12 04:38:39;;;;;;;23.80;14.60;;;10.50;99.90;;;;;;5025469;28;20446;-64
2021/10/12 04:41:07;;;;;;;20.27;13.50;;;10.50;99.90;;;;;;5011637;28;20462;-64
2021/10/12 04:43:33;;;;;;;17.73;14.33;;;10.50;99.90;;;;;;5012030;28;20457;-62
2021/10/12 04:46:00;;;;;;;16.13;10.83;;;10.60;99.90;;;;;;5011732;28;20931;-64
2021/10/12 04:48:28;;;;;;;19.60;11.20;;;10.60;99.90;;;;;;5014729;28;20452;-65
2021/10/12 04:50:56;;;;;;;13.90;10.70;;;10.60;99.90;;;;;;5031965;28;20977;-65
2021/10/12 04:53:23;;;;;;;18.83;12.03;;;10.60;99.90;;;;;;5035305;28;20507;-64
2021/10/12 04:55:50;;;;;;;17.07;11.70;;;10.60;99.90;;;;;;5035210;28;20444;-63
2021/10/12 04:58:17;;;;;;;15.60;10.70;;;10.60;99.90;;;;;;5032678;28;20448;-65
2021/10/12 05:00:43;;;;;;;14.63;10.47;;;10.60;99.90;;;;;;5015332;28;20497;-65
2021/10/12 05:03:10;;;;;;;12.53;10.27;;;10.60;99.90;;;;;;5015347;28;20878;-65
2021/10/12 05:05:38;;;;;;;14.67;11.30;;;10.60;99.90;;;;;;5015400;28;20450;-66
2021/10/12 05:08:05;;;;;;;15.03;10.90;;;10.60;99.90;;;;;;5027820;28;20452;-65
2021/10/12 05:10:32;;;;;;;19.83;10.97;;;10.60;99.90;;;;;;5032588;28;20483;-67
2021/10/12 05:12:59;;;;;;;21.30;12.10;;;10.50;99.90;;;;;;5034701;28;20481;-67
2021/10/12 05:15:28;;;;;;;16.50;9.63;;;10.60;99.90;;;;;;5034619;28;20453;-66
2021/10/12 05:17:56;;;;;;;12.63;10.67;;;10.60;99.90;;;;;;5021858;28;20476;-67
2021/10/12 05:20:23;;;;;;;16.13;11.57;;;10.60;99.90;;;;;;5014803;28;20477;-66
2021/10/12 05:22:51;;;;;;;12.50;10.70;;;10.60;99.90;;;;;;5014917;28;20442;-66
2021/10/12 05:25:18;;;;;;;26.87;11.73;;;10.60;99.90;;;;;;5015081;28;20450;-65
2021/10/12 05:27:45;;;;;;;11.00;9.43;;;10.60;99.90;;;;;;5025027;28;20452;-67
2021/10/12 05:30:13;;;;;;;11.30;9.80;;;10.60;99.90;;;;;;5034347;28;20803;-66
2021/10/12 05:32:40;;;;;;;18.50;11.67;;;10.60;99.90;;;;;;5034587;28;20487;-66
2021/10/12 05:35:09;;;;;;;12.60;9.70;;;10.60;99.90;;;;;;5034320;28;20456;-67
2021/10/12 05:37:36;;;;;;;14.43;13.03;;;10.60;99.90;;;;;;5025236;28;20445;-66
2021/10/12 05:40:06;;;;;;;10.67;9.50;;;10.60;99.90;;;;;;5014507;28;20466;-66
2021/10/12 05:42:33;;;;;;;10.80;9.70;;;10.60;99.90;;;;;;5014375;28;20449;-67
2021/10/12 05:45:00;;;;;;;14.37;9.17;;;10.60;99.90;;;;;;5014419;28;20475;-66
2021/10/12 05:47:27;;;;;;;14.50;12.10;;;10.70;99.90;;;;;;5021400;28;20449;-66
2021/10/12 05:49:53;;;;;;;28.17;10.77;;;10.70;99.90;;;;;;5033813;28;20540;-66
2021/10/12 05:52:22;;;;;;;21.77;12.97;;;10.70;99.90;;;;;;5034100;28;20480;-66
2021/10/12 05:54:53;;;;;;;17.43;11.20;;;10.70;99.90;;;;;;5034029;28;20460;-66
2021/10/12 05:57:29;;;;;;;16.20;9.67;;;10.70;99.90;;;;;;5027871;28;20548;-66
2021/10/12 05:59:56;;;;;;;14.00;10.17;;;10.70;99.90;;;;;;5014078;28;20469;-65
2021/10/12 06:02:23;;;;;;;14.13;11.80;;;10.80;99.90;;;;;;5013537;28;20442;-65
2021/10/12 06:04:49;;;;;;;17.17;10.90;;;10.80;99.90;;;;;;5014090;28;20449;-66
2021/10/12 06:07:16;;;;;;;11.37;10.17;;;10.90;99.90;;;;;;5017716;28;20457;-66
2021/10/12 06:09:42;;;;;;;10.90;9.60;;;10.80;99.90;;;;;;5033497;28;20477;-66
2021/10/12 06:12:09;;;;;;;19.10;11.37;;;10.80;99.90;;;;;;5033157;28;21057;-66
2021/10/12 06:14:37;;;;;;;12.50;9.93;;;10.80;99.90;;;;;;5033270;28;20437;-66
2021/10/12 06:17:04;;;;;;;12.70;8.93;;;10.90;99.90;;;;;;5033084;28;20452;-65
2021/10/12 06:19:30;;;;;;;12.87;11.10;;;10.90;99.90;;;;;;5033215;28;20861;-66
2021/10/12 06:21:57;;;;;;;16.20;10.80;;;10.90;99.90;;;;;;5033477;28;20441;-65
2021/10/12 06:24:24;;;;;;;11.87;10.70;;;10.90;99.90;;;;;;5033435;28;20452;-65
2021/10/12 06:26:50;;;;;;;13.70;11.77;;;11.00;99.90;;;;;;5017926;28;20453;-65
2021/10/12 06:29:17;;;;;;;12.53;10.20;;;11.00;99.90;;;;;;5013268;28;20450;-65
2021/10/12 06:31:45;;;;;;;17.70;10.63;;;11.00;99.90;;;;;;5013244;28;20485;-65
2021/10/12 06:34:12;;;;;;;10.23;9.20;;;11.00;99.90;;;;;;5020106;28;20939;-66
2021/10/12 06:36:41;;;;;;;11.13;10.00;;;11.10;99.90;;;;;;5032798;28;20480;-66
2021/10/12 06:39:08;;;;;;;11.67;10.37;;;11.00;99.90;;;;;;5032789;28;20858;-65
2021/10/12 06:41:35;;;;;;;20.13;11.47;;;11.10;99.90;;;;;;5032770;28;20445;-65
2021/10/12 06:44:02;;;;;;;12.97;10.30;;;11.10;99.90;;;;;;5027034;28;20445;-65
2021/10/12 06:46:28;;;;;;;11.03;9.00;;;11.10;99.90;;;;;;5013181;28;20442;-65
2021/10/12 06:48:56;;;;;;;10.50;9.70;;;11.10;99.90;;;;;;5012880;28;20453;-65
2021/10/12 06:51:23;;;;;;;15.93;10.23;;;11.10;99.90;;;;;;5012917;28;20466;-65
2021/10/12 06:53:50;;;;;;;14.93;9.83;;;11.20;99.90;;;;;;5013356;28;20449;-65
2021/10/12 06:56:16;;;;;;;16.23;11.07;;;11.20;99.90;;;;;;5013041;28;20446;-65
2021/10/12 06:58:44;;;;;;;13.30;11.50;;;11.20;99.90;;;;;;5012750;28;20446;-65
2021/10/12 07:01:11;;;;;;;11.00;10.00;;;11.20;99.90;;;;;;5012889;28;20477;-65
2021/10/12 07:03:38;;;;;;;12.50;11.20;;;11.20;99.90;;;;;;5014520;28;20446;-65
2021/10/12 07:06:06;;;;;;;16.13;9.57;;;11.20;99.90;;;;;;5032554;28;20845;-66
2021/10/12 07:08:32;;;;;;;12.90;10.20;;;11.20;99.90;;;;;;5032228;28;20441;-65
2021/10/12 07:10:59;;;;;;;10.40;9.40;;;11.20;99.90;;;;;;5032454;28;20481;-66
2021/10/12 07:13:28;;;;;;;10.13;9.03;;;11.20;99.90;;;;;;5032154;28;20489;-66
2021/10/12 07:15:55;;;;;;;10.80;9.70;;;11.30;99.90;;;;;;4992221;28;20449;-64
2021/10/12 07:18:22;;;;;;;9.60;8.87;;;11.40;99.90;;;;;;4993264;28;20517;-65
2021/10/12 07:20:49;;;;;;;11.80;10.73;;;11.40;99.90;;;;;;4992810;28;20478;-65
2021/10/12 07:23:18;;;;;;;9.90;9.00;;;11.50;99.90;;;;;;5005779;28;20469;-65
2021/10/12 07:25:45;;;;;;;11.00;9.90;;;11.40;99.90;;;;;;5012489;28;20450;-66
2021/10/12 07:28:12;;;;;;;13.43;9.70;;;11.50;99.90;;;;;;5012261;28;20819;-66
2021/10/12 07:30:38;;;;;;;10.73;9.93;;;11.50;99.90;;;;;;5012409;28;20465;-66
2021/10/12 07:33:05;;;;;;;10.33;9.43;;;11.50;99.90;;;;;;5012585;28;20482;-66
2021/10/12 07:35:32;;;;;;;16.73;11.43;;;11.50;99.90;;;;;;5012217;28;20453;-65
2021/10/12 07:38:00;;;;;;;13.23;10.97;;;11.50;99.90;;;;;;5012283;28;20458;-66
2021/10/12 07:40:28;;;;;;;12.53;10.80;;;11.50;99.90;;;;;;5012106;28;20470;-66
2021/10/12 07:42:55;;;;;;;12.43;10.20;;;11.50;99.90;;;;;;5012621;28;20990;-66
2021/10/12 07:45:22;;;;;;;10.37;9.00;;;11.60;99.90;;;;;;5012174;28;20445;-65
2021/10/12 07:47:48;;;;;;;11.83;10.47;;;11.50;99.90;;;;;;5011913;28;20441;-66
2021/10/12 07:50:15;;;;;;;10.70;9.80;;;11.60;99.90;;;;;;5012107;28;20458;-65
2021/10/12 07:52:43;;;;;;;11.30;10.20;;;11.60;99.90;;;;;;5031878;28;20513;-65
2021/10/12 07:55:15;;;;;;;11.63;10.27;;;11.70;99.90;;;;;;5031744;28;20455;-65
2021/10/12 07:57:43;;;;;;;13.43;11.07;;;11.80;99.90;;;;;;5031710;28;20449;-66
2021/10/12 08:00:12;;;;;;;14.03;11.10;;;11.90;99.90;;;;;;5031721;28;20468;-65
2021/10/12 08:02:39;;;;;;;11.50;10.30;;;11.90;99.90;;;;;;4992307;28;20962;-66
2021/10/12 08:05:06;;;;;;;12.23;11.10;;;12.00;99.90;;;;;;4992478;28;20450;-66
2021/10/12 08:07:33;;;;;;;13.57;12.37;;;12.10;99.90;;;;;;4992012;28;20449;-65
2021/10/12 08:09:59;;;;;;;12.07;11.23;;;12.10;99.90;;;;;;4991870;28;20829;-66
2021/10/12 08:12:26;;;;;;;18.47;11.60;;;12.00;99.90;;;;;;5022245;28;20481;-65
2021/10/12 08:14:59;;;;;;;16.13;12.53;;;12.00;99.90;;;;;;5031426;28;20813;-66
2021/10/12 08:17:26;;;;;;;16.40;12.03;;;12.00;99.90;;;;;;5031432;28;20451;-65
2021/10/12 08:19:52;;;;;;;12.97;11.87;;;12.10;99.90;;;;;;5031244;28;20493;-65
2021/10/12 08:22:19;;;;;;;16.97;15.30;;;12.20;99.90;;;;;;5017581;28;20449;-65
2021/10/12 08:24:46;;;;;;;13.47;12.10;;;12.20;99.90;;;;;;5031382;28;20453;-65
2021/10/12 08:27:13;;;;;;;15.10;13.43;;;12.10;99.90;;;;;;5034457;28;20445;-65
2021/10/12 08:29:39;;;;;;;19.20;13.17;;;12.10;99.90;;;;;;5035151;28;20469;-65
2021/10/12 08:32:08;;;;;;;17.20;13.70;;;12.10;99.90;;;;;;5021282;28;20883;-66
2021/10/12 08:34:34;;;;;;;14.97;13.50;;;12.20;99.90;;;;;;5015689;28;21201;-66
2021/10/12 08:37:01;;;;;;;21.20;15.57;;;12.10;99.90;;;;;;5015672;28;20449;-65
2021/10/12 08:39:31;;;;;;;14.77;13.43;;;12.10;99.90;;;;;;5015544;28;20466;-65
2021/10/12 08:42:03;;;;;;;14.87;13.57;;;12.20;99.90;;;;;;5025835;28;20449;-64
2021/10/12 08:44:30;;;;;;;13.63;12.60;;;12.30;99.90;;;;;;5035232;28;20448;-65
2021/10/12 08:46:58;;;;;;;17.40;15.27;;;12.40;99.90;;;;;;5035313;28;20456;-64
2021/10/12 08:49:26;;;;;;;15.37;14.10;;;12.40;99.90;;;;;;5034133;28;20476;-65
2021/10/12 08:51:53;;;;;;;14.83;13.60;;;12.40;99.90;;;;;;5035011;28;20797;-64
2021/10/12 08:54:19;;;;;;;14.83;13.63;;;12.40;99.90;;;;;;5035018;28;20452;-65
2021/10/12 08:56:46;;;;;;;15.07;13.77;;;12.30;99.90;;;;;;5035048;28;20488;-66
2021/10/12 08:59:13;;;;;;;14.10;12.77;;;12.40;99.90;;;;;;5034482;28;20449;-65
2021/10/12 09:01:57;;;;;;;15.07;13.60;;;12.30;99.90;;;;;;5034840;28;20934;-65
2021/10/12 09:04:26;;;;;;;18.20;13.20;;;12.30;99.90;;;;;;5034851;28;20445;-64
2021/10/12 09:06:54;;;;;;;15.23;13.93;;;12.30;99.90;;;;;;5034826;28;20449;-66
2021/10/12 09:09:34;;;;;;;14.37;13.03;;;12.20;99.90;;;;;;5016803;28;20473;-65
2021/10/12 09:12:01;;;;;;;14.17;12.77;;;12.10;99.90;;;;;;5015026;28;20488;-65
2021/10/12 09:14:27;;;;;;;15.67;14.03;;;12.20;99.90;;;;;;5014989;28;20453;-64
2021/10/12 09:17:04;;;;;;;15.13;13.73;;;12.30;99.90;;;;;;5014865;28;20446;-64
2021/10/12 09:19:34;;;;;;;13.07;12.00;;;12.30;99.90;;;;;;5014686;28;20466;-65
2021/10/12 09:22:05;;;;;;;11.53;10.63;;;12.30;99.90;;;;;;5014700;28;21021;-65
2021/10/12 09:24:38;;;;;;;11.03;10.23;;;12.20;99.90;;;;;;5014726;28;20508;-65
2021/10/12 09:27:07;;;;;;;13.07;11.83;;;12.20;99.90;;;;;;5014751;28;20482;-65
2021/10/12 09:29:36;;;;;;;13.40;12.20;;;12.30;99.90;;;;;;5032752;28;20534;-66
2021/10/12 09:32:05;;;;;;;14.27;12.63;;;12.50;99.90;;;;;;5034246;28;20440;-65
2021/10/12 09:34:34;;;;;;;14.87;13.33;;;12.60;99.90;;;;;;5034429;28;20452;-65
2021/10/12 09:37:02;;;;;;;15.20;13.90;;;12.50;99.90;;;;;;5022356;28;20454;-66
2021/10/12 09:39:31;;;;;;;15.60;11.83;;;12.40;99.90;;;;;;5013590;28;20474;-64
2021/10/12 09:42:00;;;;;;;15.17;13.73;;;12.20;99.90;;;;;;5014412;28;20450;-65
2021/10/12 09:44:28;;;;;;;13.00;11.63;;;12.20;99.90;;;;;;5014433;28;20835;-65
2021/10/12 09:47:07;;;;;;;13.37;12.07;;;12.10;99.90;;;;;;5024136;28;20453;-65
2021/10/12 09:49:35;;;;;;;13.33;12.07;;;12.10;99.90;;;;;;5033752;28;20472;-66
2021/10/12 09:52:06;;;;;;;14.23;13.03;;;12.10;99.90;;;;;;5034133;28;20452;-65
2021/10/12 09:54:34;;;;;;;13.47;12.27;;;12.10;99.90;;;;;;5033922;28;20484;-65
2021/10/12 09:57:03;;;;;;;13.30;12.10;;;12.20;99.90;;;;;;5022809;28;20445;-64
2021/10/12 09:59:30;;;;;;;13.33;12.13;;;12.30;99.90;;;;;;5013813;28;20473;-65
2021/10/12 10:01:58;;;;;;;13.10;11.77;;;12.30;99.90;;;;;;5014008;28;20983;-64
2021/10/12 10:04:27;;;;;;;13.27;12.00;;;12.20;99.90;;;;;;5013987;28;20932;-66
2021/10/12 10:07:03;;;;;;;15.70;14.30;;;12.20;99.90;;;;;;5023342;28;20452;-64
2021/10/12 10:09:31;;;;;;;12.93;11.80;;;12.40;99.90;;;;;;5032982;28;20526;-65
2021/10/12 10:11:59;;;;;;;14.00;12.77;;;12.50;99.90;;;;;;5033669;28;20483;-65
2021/10/12 10:14:26;;;;;;;13.97;12.80;;;12.50;99.90;;;;;;5035781;28;20485;-66
2021/10/12 10:16:54;;;;;;;17.10;15.40;;;12.60;99.90;;;;;;5026747;28;21054;-65
2021/10/12 10:19:23;;;;;;;15.83;14.20;;;12.70;99.90;;;;;;5016194;28;20924;-65
2021/10/12 10:21:50;;;;;;;17.37;14.10;;;12.90;99.90;;;;;;5015629;28;20446;-65
2021/10/12 10:24:39;;;;;;;14.77;13.50;;;13.10;99.90;;;;;;5015908;28;20442;-65
2021/10/12 10:27:07;;;;;;;18.10;16.40;;;13.30;99.90;;;;;;5017496;28;20454;-65
2021/10/12 10:29:37;;;;;;;21.03;19.20;;;13.60;99.90;;;;;;5016297;28;20505;-66
2021/10/12 10:32:13;;;;;;;21.80;19.70;;;13.60;99.90;;;;;;5015785;28;20549;-66
2021/10/12 10:34:42;;;;;;;23.33;21.07;;;13.80;99.90;;;;;;5016004;28;20477;-65
2021/10/12 10:37:31;;;;;;;22.00;19.80;;;13.80;99.90;;;;;;5015866;28;20457;-64
2021/10/12 10:43:03;;;;;;;23.40;20.90;;;13.80;99.90;;;;;;5112052;27;20573;-67
2021/10/12 10:45:48;;;;;;;22.20;19.90;;;13.80;99.90;;;;;;5112011;28;20434;-66
2021/10/12 10:48:17;;;;;;;22.53;20.43;;;13.80;99.90;;;;;;5113518;28;20460;-67
2021/10/12 10:50:43;;;;;;;22.23;20.47;;;13.70;99.90;;;;;;5114648;28;20989;-66
2021/10/12 10:53:11;;;;;;;22.93;20.90;;;13.80;99.90;;;;;;5114159;28;20453;-68
2021/10/12 10:55:40;;;;;;;24.53;22.50;;;13.90;99.90;;;;;;5114311;28;20446;-66
2021/10/12 10:58:14;;;;;;;23.77;21.07;;;13.80;99.90;;;;;;5114286;28;20901;-67
2021/10/12 11:00:45;;;;;;;23.90;21.90;;;13.60;99.90;;;;;;5115027;28;20472;-66
2021/10/12 11:03:36;;;;;;;21.77;19.47;;;13.40;99.90;;;;;;5103643;28;20790;-67
2021/10/12 11:06:04;;;;;;;23.23;21.00;;;13.40;99.90;;;;;;5100581;28;20454;-66
2021/10/12 11:08:33;;;;;;;22.13;19.87;;;13.20;99.90;;;;;;5100353;28;20458;-66
2021/10/12 11:11:01;;;;;;;24.17;20.27;;;13.20;99.90;;;;;;5097899;28;20462;-66
2021/10/12 11:13:35;;;;;;;21.00;19.10;;;13.30;99.90;;;;;;5116383;28;20544;-63
2021/10/12 11:16:02;;;;;;;21.97;19.97;;;13.40;99.90;;;;;;5118783;28;20468;-66
2021/10/12 11:18:29;;;;;;;22.63;20.43;;;13.40;99.90;;;;;;5120815;28;20442;-65
2021/10/12 11:20:58;;;;;;;22.27;19.43;;;13.40;99.90;;;;;;5121352;28;20468;-65
2021/10/12 11:23:30;;;;;;;22.47;20.07;;;13.50;99.90;;;;;;5101444;28;20869;-65
2021/10/12 11:26:04;;;;;;;21.30;19.23;;;13.70;99.90;;;;;;5102093;28;20454;-65
2021/10/12 11:28:34;;;;;;;24.50;22.10;;;13.80;99.90;;;;;;5103455;28;20449;-65
2021/10/12 11:31:04;;;;;;;24.43;20.60;;;14.10;99.90;;;;;;5102752;28;20473;-65
2021/10/12 11:33:33;;;;;;;22.77;20.47;;;14.20;99.90;;;;;;5122838;28;20520;-65
2021/10/12 11:36:01;;;;;;;22.77;20.57;;;14.60;99.90;;;;;;5124596;28;20453;-65
2021/10/12 11:38:33;;;;;;;22.43;20.40;;;14.60;99.90;;;;;;5123826;28;20445;-65
2021/10/12 11:41:00;;;;;;;21.30;19.50;;;14.70;99.90;;;;;;5122805;28;20472;-66
2021/10/12 11:43:33;;;;;;;21.27;19.60;;;14.80;99.90;;;;;;5104106;28;20457;-64
2021/10/12 11:46:00;;;;;;;22.23;20.43;;;14.90;99.90;;;;;;5102874;28;20446;-66
2021/10/12 11:48:27;;;;;;;21.70;19.60;;;15.10;99.90;;;;;;5102388;28;20453;-66
2021/10/12 11:50:54;;;;;;;23.63;20.40;;;15.00;99.90;;;;;;5112194;28;20457;-65
2021/10/12 11:53:27;;;;;;;22.30;20.37;;;14.90;99.90;;;;;;5114052;28;20445;-66
2021/10/12 11:56:07;;;;;;;22.50;20.53;;;14.70;99.90;;;;;;5107750;28;20856;-66
2021/10/12 11:58:35;;;;;;;21.90;20.20;;;14.80;99.90;;;;;;5106354;28;20442;-65
2021/10/12 12:01:01;;;;;;;23.87;21.63;;;14.80;99.90;;;;;;5092849;28;20459;-65
2021/10/12 12:03:28;;;;;;;24.53;22.20;;;14.80;99.90;;;;;;5085998;28;20443;-65
2021/10/12 12:05:57;;;;;;;23.10;21.17;;;14.80;99.90;;;;;;5086867;28;20447;-66
2021/10/12 12:08:26;;;;;;;21.97;20.17;;;14.80;99.90;;;;;;5086995;28;20443;-65
2021/10/12 12:10:54;;;;;;;21.67;19.67;;;15.00;99.90;;;;;;5098256;28;20462;-65
2021/10/12 12:13:22;;;;;;;23.23;21.50;;;15.30;99.90;;;;;;5107074;28;20478;-66
2021/10/12 12:15:50;;;;;;;19.37;17.87;;;15.70;99.90;;;;;;5106794;28;20446;-65
2021/10/12 12:18:19;;;;;;;18.93;17.73;;;15.80;99.90;;;;;;5106796;28;20439;-67
2021/10/12 12:20:56;;;;;;;18.67;17.63;;;15.70;99.90;;;;;;5097205;28;20459;-65
2021/10/12 12:23:31;;;;;;;20.13;18.83;;;15.70;99.90;;;;;;5086438;28;20447;-65
2021/10/12 12:25:58;;;;;;;20.03;18.60;;;16.00;99.90;;;;;;5085803;28;20450;-66
2021/10/12 12:28:25;;;;;;;19.67;18.40;;;16.20;99.90;;;;;;5087421;28;20447;-65
2021/10/12 12:30:53;;;;;;;18.70;17.53;;;16.50;99.90;;;;;;5094923;28;20466;-64
2021/10/12 12:33:20;;;;;;;18.73;17.70;;;16.60;99.90;;;;;;5103491;28;20475;-66
2021/10/12 12:35:49;;;;;;;20.30;19.00;;;17.00;99.90;;;;;;5105643;28;20446;-66
2021/10/12 12:38:24;;;;;;;18.53;17.63;;;16.80;99.90;;;;;;5104004;28;20443;-66
2021/10/12 12:40:51;;;;;;;19.97;18.20;;;16.70;99.90;;;;;;5095145;28;20474;-66